Time;durP1;ratioP1;P1;durP2;ratioP2;P2;SDS_P1;SDS_P2;PMS_P1;PMS_P2;Temp;Humidity;BMP_temperature;BMP_pressure;BME280_temperature;BME280_humidity;BME280_pressure;Samples;Min_cycle;Max_cycle;Signal;HPM_P1;HPM_P2
2022/03/14 00:00:22;;;;;;;18.95;9.02;;;1.50;16.00;;;;;;5086077;28;20024;-66
2022/03/14 00:02:48;;;;;;;16.25;8.32;;;1.60;14.80;;;;;;5085978;28;20024;-65
2022/03/14 00:05:15;;;;;;;18.25;7.85;;;1.60;16.20;;;;;;5084672;28;20043;-66
2022/03/14 00:07:47;;;;;;;21.30;9.27;;;1.60;14.90;;;;;;5085662;28;20805;-65
2022/03/14 00:10:15;;;;;;;20.70;9.20;;;1.60;15.30;;;;;;5064943;28;20607;-66
2022/03/14 00:12:46;;;;;;;19.05;8.48;;;1.70;15.00;;;;;;5080180;28;20060;-66
2022/03/14 00:15:13;;;;;;;17.02;8.25;;;1.60;15.40;;;;;;5063728;28;20048;-65
2022/03/14 00:17:41;;;;;;;18.58;8.55;;;1.60;15.30;;;;;;5086250;28;20028;-65
2022/03/14 00:20:10;;;;;;;18.80;7.68;;;1.50;16.20;;;;;;5074905;28;20036;-65
2022/03/14 00:22:37;;;;;;;13.63;6.63;;;1.40;16.00;;;;;;5083220;28;20055;-65
2022/03/14 00:25:04;;;;;;;21.83;8.85;;;1.30;17.50;;;;;;5061559;28;20109;-65
2022/03/14 00:27:29;;;;;;;20.42;8.43;;;1.30;17.10;;;;;;5069604;28;20331;-66
2022/03/14 00:29:54;;;;;;;17.88;8.57;;;1.20;17.90;;;;;;5071795;28;20776;-66
2022/03/14 00:32:21;;;;;;;18.38;9.18;;;1.20;17.80;;;;;;5081473;28;20332;-66
2022/03/14 00:34:46;;;;;;;24.08;9.27;;;1.10;18.70;;;;;;5082945;28;20411;-65
2022/03/14 00:37:12;;;;;;;24.55;10.52;;;1.10;17.80;;;;;;5083599;28;20039;-66
2022/03/14 00:39:37;;;;;;;22.20;9.70;;;1.20;17.80;;;;;;5083773;28;20032;-65
2022/03/14 00:42:03;;;;;;;21.42;9.77;;;1.30;18.00;;;;;;5085625;28;20518;-65
2022/03/14 00:44:31;;;;;;;29.15;10.93;;;1.30;17.20;;;;;;5083294;28;20028;-65
2022/03/14 00:46:56;;;;;;;20.38;10.10;;;1.60;16.50;;;;;;5070822;28;20440;-66
2022/03/14 00:49:22;;;;;;;25.40;10.60;;;1.70;16.40;;;;;;5083397;28;20016;-66
2022/03/14 00:51:48;;;;;;;23.38;10.73;;;1.90;16.20;;;;;;5080039;28;20067;-66
2022/03/14 00:54:13;;;;;;;26.65;10.93;;;1.90;15.20;;;;;;5082346;28;20151;-66
2022/03/14 00:56:39;;;;;;;18.40;9.82;;;1.90;15.30;;;;;;5073621;28;20435;-66
2022/03/14 00:59:04;;;;;;;24.10;9.80;;;1.90;15.60;;;;;;5073001;28;20020;-65
2022/03/14 01:01:30;;;;;;;25.45;9.95;;;1.90;15.40;;;;;;5086025;28;20038;-65
2022/03/14 01:03:56;;;;;;;19.77;9.43;;;1.80;15.80;;;;;;5088898;28;20110;-65
2022/03/14 01:06:22;;;;;;;25.40;10.32;;;1.70;15.40;;;;;;5072562;28;20032;-65
2022/03/14 01:08:47;;;;;;;24.20;9.57;;;1.70;15.40;;;;;;5089056;28;20470;-65
2022/03/14 01:11:13;;;;;;;22.95;10.55;;;1.60;15.20;;;;;;5071438;28;20115;-65
2022/03/14 01:13:39;;;;;;;22.13;10.30;;;1.70;15.80;;;;;;5088902;28;20038;-65
2022/03/14 01:16:06;;;;;;;21.90;9.07;;;1.70;15.30;;;;;;5070225;28;20032;-65
2022/03/14 01:18:31;;;;;;;21.27;9.40;;;1.70;15.80;;;;;;5088610;28;20036;-65
2022/03/14 01:20:57;;;;;;;19.45;9.45;;;1.60;16.50;;;;;;5069314;28;20102;-66
2022/03/14 01:23:22;;;;;;;24.88;9.88;;;1.60;16.20;;;;;;5085651;28;20032;-65
2022/03/14 01:25:49;;;;;;;21.75;9.35;;;1.70;16.00;;;;;;5067652;28;20035;-65
2022/03/14 01:28:15;;;;;;;20.52;9.32;;;1.70;15.60;;;;;;5084501;28;20054;-65
2022/03/14 01:30:41;;;;;;;25.48;11.30;;;1.70;15.90;;;;;;5069256;28;20491;-65
2022/03/14 01:33:07;;;;;;;27.25;11.65;;;1.80;15.70;;;;;;5068627;28;20028;-65
2022/03/14 01:35:33;;;;;;;27.70;11.43;;;1.90;15.70;;;;;;5087590;28;20111;-65
2022/03/14 01:37:58;;;;;;;23.15;11.07;;;1.80;15.50;;;;;;5067133;28;20369;-64
2022/03/14 01:40:24;;;;;;;23.98;10.25;;;1.80;15.90;;;;;;5087495;28;20042;-66
2022/03/14 01:42:50;;;;;;;19.98;9.10;;;1.80;15.70;;;;;;5067172;28;20037;-66
2022/03/14 01:45:17;;;;;;;21.52;9.57;;;1.80;16.10;;;;;;5087707;28;20039;-65
2022/03/14 01:47:44;;;;;;;20.48;10.40;;;1.60;16.30;;;;;;5067024;28;20131;-65
2022/03/14 01:50:10;;;;;;;20.52;10.13;;;1.50;16.50;;;;;;5088039;28;20103;-65
2022/03/14 01:52:36;;;;;;;27.05;10.80;;;1.50;16.60;;;;;;5066692;28;20476;-66
2022/03/14 01:55:02;;;;;;;20.50;9.93;;;1.40;16.80;;;;;;5087613;28;20084;-65
2022/03/14 01:57:29;;;;;;;24.17;10.38;;;1.40;17.10;;;;;;5066877;28;20044;-65
2022/03/14 01:59:55;;;;;;;24.98;10.38;;;1.40;17.40;;;;;;5087793;28;20036;-66
2022/03/14 02:02:21;;;;;;;27.70;11.60;;;1.40;17.70;;;;;;5066767;28;20429;-65
2022/03/14 02:04:47;;;;;;;21.85;10.55;;;1.30;17.10;;;;;;5087494;28;20369;-66
2022/03/14 02:07:12;;;;;;;22.50;10.25;;;1.30;17.30;;;;;;5068946;28;20021;-65
2022/03/14 02:09:38;;;;;;;21.17;10.32;;;1.30;17.40;;;;;;5091307;28;20039;-66
2022/03/14 02:12:03;;;;;;;20.48;9.88;;;1.20;17.20;;;;;;5070567;28;20103;-65
2022/03/14 02:14:30;;;;;;;24.38;11.15;;;1.10;17.90;;;;;;5091240;28;20043;-65
2022/03/14 02:16:55;;;;;;;23.45;11.00;;;1.20;18.10;;;;;;5080483;28;20726;-66
2022/03/14 02:19:21;;;;;;;25.63;11.32;;;1.10;18.50;;;;;;5072199;28;20028;-65
2022/03/14 02:21:47;;;;;;;24.10;9.75;;;1.10;18.20;;;;;;5089246;28;20063;-65
2022/03/14 02:24:12;;;;;;;24.85;10.48;;;1.10;18.80;;;;;;5081385;28;20044;-65
2022/03/14 02:26:39;;;;;;;23.45;10.55;;;1.00;18.90;;;;;;5074178;28;20032;-65
2022/03/14 02:29:06;;;;;;;20.65;9.35;;;0.90;18.60;;;;;;5071969;28;20396;-65
2022/03/14 02:31:36;;;;;;;25.38;10.80;;;0.90;18.80;;;;;;5089234;28;20484;-65
2022/03/14 02:34:05;;;;;;;23.77;10.70;;;1.00;19.20;;;;;;5091660;28;20027;-65
2022/03/14 02:36:32;;;;;;;30.13;11.10;;;1.10;18.80;;;;;;5076068;28;20043;-66
2022/03/14 02:38:58;;;;;;;26.25;11.93;;;1.10;18.30;;;;;;5091723;28;20032;-65
2022/03/14 02:41:24;;;;;;;24.08;12.20;;;1.00;18.60;;;;;;5075922;28;20526;-65
2022/03/14 02:43:50;;;;;;;28.50;12.00;;;1.20;18.40;;;;;;5091506;28;20066;-65
2022/03/14 02:46:15;;;;;;;26.67;10.65;;;1.10;18.40;;;;;;5074762;28;20064;-65
2022/03/14 02:48:41;;;;;;;22.08;10.48;;;1.00;18.40;;;;;;5091381;28;20023;-66
2022/03/14 02:51:08;;;;;;;24.75;11.23;;;1.10;18.60;;;;;;5073300;28;20174;-65
2022/03/14 02:53:33;;;;;;;25.42;11.80;;;1.10;18.20;;;;;;5091307;28;20020;-65
2022/03/14 02:55:59;;;;;;;23.65;11.15;;;1.10;18.30;;;;;;5072141;28;20036;-65
2022/03/14 02:58:26;;;;;;;25.17;11.90;;;1.10;18.80;;;;;;5091315;28;20020;-66
2022/03/14 03:00:52;;;;;;;20.75;9.70;;;1.00;18.50;;;;;;5070844;28;20031;-65
2022/03/14 03:03:18;;;;;;;25.58;11.38;;;1.00;19.00;;;;;;5091347;28;20400;-65
2022/03/14 03:05:44;;;;;;;22.33;9.93;;;1.00;18.80;;;;;;5069783;28;20539;-65
2022/03/14 03:08:10;;;;;;;21.50;10.20;;;0.90;18.60;;;;;;5091159;28;20393;-65
2022/03/14 03:10:36;;;;;;;21.25;8.95;;;0.70;18.90;;;;;;5071282;28;20028;-65
2022/03/14 03:13:05;;;;;;;27.67;11.85;;;0.70;19.20;;;;;;5088467;28;20412;-65
2022/03/14 03:15:30;;;;;;;24.40;11.45;;;0.60;20.30;;;;;;5071247;28;20037;-65
2022/03/14 03:17:56;;;;;;;22.80;11.38;;;0.60;19.70;;;;;;5069142;28;20024;-65
2022/03/14 03:20:22;;;;;;;29.45;12.77;;;0.60;20.50;;;;;;5090023;28;20483;-66
2022/03/14 03:22:48;;;;;;;24.65;10.95;;;0.50;20.40;;;;;;5069461;28;20166;-65
2022/03/14 03:25:14;;;;;;;25.92;10.98;;;0.50;21.10;;;;;;5089753;28;20147;-65
2022/03/14 03:27:39;;;;;;;27.90;11.70;;;0.40;21.40;;;;;;5065518;28;20025;-66
2022/03/14 03:30:05;;;;;;;27.98;11.88;;;0.40;20.70;;;;;;5089783;28;20507;-66
2022/03/14 03:32:31;;;;;;;27.23;11.60;;;0.40;21.20;;;;;;5069083;28;20058;-66
2022/03/14 03:34:56;;;;;;;20.85;10.65;;;0.30;21.40;;;;;;5089819;28;20052;-65
2022/03/14 03:37:22;;;;;;;22.83;9.48;;;0.30;21.80;;;;;;5068811;28;20514;-65
2022/03/14 03:39:48;;;;;;;26.80;10.90;;;0.20;21.50;;;;;;5089911;28;20038;-65
2022/03/14 03:42:13;;;;;;;25.17;11.32;;;0.20;21.60;;;;;;5068706;28;20043;-65
2022/03/14 03:44:39;;;;;;;23.85;10.90;;;0.10;22.10;;;;;;5089728;28;20038;-66
2022/03/14 03:47:05;;;;;;;23.65;10.65;;;0.10;22.70;;;;;;5068745;28;20021;-65
2022/03/14 03:49:31;;;;;;;26.10;11.45;;;0.00;22.80;;;;;;5089502;28;20092;-65
2022/03/14 03:51:56;;;;;;;25.42;11.93;;;0.00;22.60;;;;;;5078908;28;20031;-65
2022/03/14 03:54:22;;;;;;;21.05;10.70;;;0.00;23.00;;;;;;5070119;28;20160;-65
2022/03/14 03:56:48;;;;;;;24.95;11.95;;;-0.10;24.40;;;;;;5087507;28;20077;-65
2022/03/14 03:59:14;;;;;;;22.98;10.65;;;-0.20;22.90;;;;;;5070065;28;20060;-65
2022/03/14 04:01:39;;;;;;;23.52;11.40;;;-0.20;23.80;;;;;;5087340;28;20086;-65
2022/03/14 04:04:05;;;;;;;22.55;10.40;;;-0.20;24.20;;;;;;5070285;28;20081;-65
2022/03/14 04:06:30;;;;;;;19.98;10.35;;;-0.20;23.60;;;;;;5087226;28;20278;-65
2022/03/14 04:08:58;;;;;;;27.63;11.02;;;-0.30;24.50;;;;;;5089877;28;20035;-65
2022/03/14 04:11:24;;;;;;;25.67;11.55;;;-0.40;23.60;;;;;;5067412;28;20036;-65
2022/03/14 04:13:51;;;;;;;24.95;9.90;;;-0.30;23.30;;;;;;5088179;28;20024;-65
2022/03/14 04:16:18;;;;;;;25.98;11.38;;;-0.40;24.10;;;;;;5067917;28;20685;-65
2022/03/14 04:18:46;;;;;;;28.58;11.00;;;-0.40;25.00;;;;;;5088876;28;20335;-65
2022/03/14 04:21:16;;;;;;;29.75;12.77;;;-0.50;25.10;;;;;;5067487;28;20032;-65
2022/03/14 04:23:42;;;;;;;24.50;10.40;;;-0.50;26.60;;;;;;5083662;28;20127;-65
2022/03/14 04:26:09;;;;;;;28.08;11.52;;;-0.60;25.40;;;;;;5080767;28;20162;-65
2022/03/14 04:28:36;;;;;;;23.42;10.63;;;-0.60;25.80;;;;;;5062081;28;20483;-65
2022/03/14 04:31:03;;;;;;;20.33;9.73;;;-0.70;26.50;;;;;;5074122;28;20032;-65
2022/03/14 04:33:29;;;;;;;24.33;8.85;;;-0.80;25.90;;;;;;5088700;28;20136;-65
2022/03/14 04:35:55;;;;;;;23.48;10.27;;;-0.90;24.80;;;;;;5067922;28;20067;-66
2022/03/14 04:38:21;;;;;;;25.30;10.18;;;-1.00;27.00;;;;;;5088750;28;20020;-65
2022/03/14 04:40:46;;;;;;;26.17;10.18;;;-1.10;29.10;;;;;;5078113;28;20028;-66
2022/03/14 04:43:11;;;;;;;32.65;12.63;;;-1.10;30.00;;;;;;5069704;28;20465;-65
2022/03/14 04:45:38;;;;;;;25.38;10.55;;;-1.00;30.10;;;;;;5086427;28;20051;-65
2022/03/14 04:48:05;;;;;;;27.50;11.27;;;-1.10;28.80;;;;;;5069371;28;20036;-65
2022/03/14 04:50:30;;;;;;;28.73;12.52;;;-1.10;29.10;;;;;;5086233;28;20111;-65
2022/03/14 04:52:56;;;;;;;27.95;12.07;;;-1.00;29.50;;;;;;5069698;28;20455;-65
2022/03/14 04:55:22;;;;;;;27.85;12.25;;;-1.00;29.00;;;;;;5086202;28;20093;-66
2022/03/14 04:57:47;;;;;;;28.48;12.40;;;-0.90;28.90;;;;;;5089039;28;20024;-65
2022/03/14 05:00:13;;;;;;;21.20;9.88;;;-0.90;28.90;;;;;;5069910;28;20055;-66
2022/03/14 05:02:38;;;;;;;23.88;12.05;;;-1.00;29.60;;;;;;5088810;28;20031;-66
2022/03/14 05:05:04;;;;;;;22.52;9.95;;;-0.90;29.10;;;;;;5089198;28;20047;-65
2022/03/14 05:07:30;;;;;;;29.00;13.18;;;-0.90;29.40;;;;;;5086903;28;20016;-66
2022/03/14 05:09:56;;;;;;;26.77;12.10;;;-0.90;30.00;;;;;;5069365;28;20040;-65
2022/03/14 05:12:22;;;;;;;20.27;9.93;;;-1.00;29.70;;;;;;5067889;28;20074;-66
2022/03/14 05:14:50;;;;;;;29.33;12.88;;;-1.00;29.70;;;;;;5088145;28;20503;-65
2022/03/14 05:17:17;;;;;;;27.42;10.98;;;-1.00;30.00;;;;;;5067043;28;20028;-65
2022/03/14 05:19:43;;;;;;;28.10;12.70;;;-0.90;30.20;;;;;;5088132;28;20039;-65
2022/03/14 05:22:08;;;;;;;26.25;11.63;;;-0.90;30.30;;;;;;5067617;28;20029;-65
2022/03/14 05:24:33;;;;;;;29.88;12.60;;;-0.90;30.00;;;;;;5087885;28;20530;-65
2022/03/14 05:26:59;;;;;;;23.83;11.35;;;-0.90;32.30;;;;;;5065583;28;20039;-65
2022/03/14 05:29:25;;;;;;;28.55;11.50;;;-0.90;30.50;;;;;;5088981;28;20024;-65
2022/03/14 05:31:50;;;;;;;22.27;10.50;;;-0.90;29.60;;;;;;5067393;28;20673;-65
2022/03/14 05:34:16;;;;;;;27.23;11.95;;;-0.90;30.70;;;;;;5087817;28;20034;-65
2022/03/14 05:36:41;;;;;;;27.92;12.60;;;-0.90;30.00;;;;;;5067258;28;20040;-66
2022/03/14 05:39:07;;;;;;;31.00;13.20;;;-0.80;30.20;;;;;;5087926;28;20048;-69
2022/03/14 05:41:32;;;;;;;34.00;13.52;;;-0.70;29.00;;;;;;5070007;28;20036;-67
2022/03/14 05:43:58;;;;;;;31.40;13.60;;;-0.60;28.00;;;;;;5092072;28;20032;-66
2022/03/14 05:46:24;;;;;;;32.90;15.18;;;-0.60;28.00;;;;;;5079107;28;20040;-66
2022/03/14 05:48:49;;;;;;;30.90;13.35;;;-0.60;29.50;;;;;;5085645;28;20074;-67
2022/03/14 05:51:15;;;;;;;28.10;13.38;;;-0.60;28.60;;;;;;5090134;28;20266;-67
2022/03/14 05:53:40;;;;;;;32.47;13.35;;;-0.50;29.20;;;;;;5072950;28;20024;-66
2022/03/14 05:56:06;;;;;;;30.60;12.85;;;-0.40;28.20;;;;;;5089855;28;20032;-66
2022/03/14 05:58:32;;;;;;;25.75;11.15;;;-0.30;27.60;;;;;;5072848;28;20496;-66
2022/03/14 06:00:57;;;;;;;24.95;11.75;;;-0.30;27.50;;;;;;5089889;28;20066;-66
2022/03/14 06:03:23;;;;;;;27.08;12.65;;;0.40;26.50;;;;;;5092492;28;20024;-67
2022/03/14 06:05:49;;;;;;;30.50;12.93;;;1.80;24.40;;;;;;5076470;28;20028;-67
2022/03/14 06:08:16;;;;;;;26.63;13.60;;;2.70;22.30;;;;;;5092541;28;20412;-67
2022/03/14 06:10:45;;;;;;;29.52;14.05;;;4.00;18.70;;;;;;5073082;28;20031;-65
2022/03/14 06:13:12;;;;;;;25.40;12.57;;;5.40;15.40;;;;;;5060834;28;20027;-67
2022/03/14 06:15:37;;;;;;;26.05;12.98;;;6.70;12.70;;;;;;5076914;28;20162;-68
2022/03/14 06:18:03;;;;;;;26.70;12.95;;;7.70;10.50;;;;;;5071398;28;20127;-68
2022/03/14 06:21:08;;;;;;;34.28;15.13;;;8.70;9.10;;;;;;5088229;28;20506;-65
2022/03/14 06:24:34;;;;;;;28.35;13.38;;;9.60;6.50;;;;;;5077983;28;20051;-67
2022/03/14 06:27:59;;;;;;;30.05;12.98;;;10.60;5.40;;;;;;5063485;28;20096;-69
2022/03/14 06:31:24;;;;;;;31.80;15.13;;;11.40;2.90;;;;;;5066379;28;20032;-71
2022/03/14 06:34:50;;;;;;;29.38;15.23;;;12.00;1.50;;;;;;5048925;28;20488;-69
2022/03/14 06:38:15;;;;;;;28.85;14.73;;;12.80;1.10;;;;;;5078857;28;20032;-69
2022/03/14 06:41:41;;;;;;;31.73;14.75;;;13.30;1.00;;;;;;5065508;28;20048;-69
2022/03/14 06:45:06;;;;;;;31.77;16.10;;;13.70;1.00;;;;;;5078505;28;20097;-67
2022/03/14 06:48:31;;;;;;;34.05;17.90;;;13.40;1.00;;;;;;5050176;28;20242;-68
2022/03/14 06:51:57;;;;;;;31.33;16.13;;;13.80;1.00;;;;;;5076091;28;20032;-70
2022/03/14 06:55:22;;;;;;;34.65;17.90;;;13.80;1.00;;;;;;5084484;28;20036;-68
2022/03/14 06:58:47;;;;;;;28.70;16.30;;;14.00;1.00;;;;;;5071721;28;20044;-68
2022/03/14 07:02:13;;;;;;;35.22;19.00;;;14.30;1.00;;;;;;5080558;28;20060;-68
2022/03/14 07:05:38;;;;;;;31.85;17.60;;;15.10;1.00;;;;;;5076682;28;20036;-67
2022/03/14 07:09:04;;;;;;;31.25;17.40;;;15.30;1.00;;;;;;5072506;28;20039;-68
2022/03/14 07:12:44;;;;;;;31.40;16.95;;;14.50;1.00;;;;;;5084676;28;20028;-70
2022/03/14 07:15:57;;;;;;;30.83;17.10;;;15.10;1.00;;;;;;5079839;28;20044;-67
2022/03/14 07:19:22;;;;;;;29.23;16.50;;;15.00;1.00;;;;;;5078772;28;20032;-68
2022/03/14 07:22:48;;;;;;;36.45;18.17;;;15.80;1.00;;;;;;5083802;28;20109;-68
2022/03/14 07:26:14;;;;;;;31.70;17.63;;;15.30;1.00;;;;;;5083933;28;20044;-70
2022/03/14 07:29:38;;;;;;;33.58;18.08;;;16.20;1.00;;;;;;5083583;28;20458;-67
2022/03/14 07:33:04;;;;;;;33.75;18.40;;;16.80;1.00;;;;;;5083389;28;20040;-67
2022/03/14 07:36:29;;;;;;;33.42;17.35;;;16.70;1.00;;;;;;5073559;28;20083;-68
2022/03/14 07:39:55;;;;;;;31.67;16.55;;;17.20;1.00;;;;;;5049437;28;20033;-68
2022/03/14 07:43:21;;;;;;;30.38;17.60;;;17.60;1.00;;;;;;5078039;28;20123;-67
2022/03/14 07:46:45;;;;;;;27.95;17.35;;;18.40;1.00;;;;;;5063263;28;20055;-68
2022/03/14 07:50:11;;;;;;;28.77;17.27;;;18.80;1.00;;;;;;5085702;28;20028;-67
2022/03/14 07:53:36;;;;;;;27.65;18.15;;;18.30;1.00;;;;;;5070569;28;20480;-68
2022/03/14 07:57:01;;;;;;;28.70;15.95;;;18.30;1.00;;;;;;5068695;28;20040;-68
2022/03/14 08:00:27;;;;;;;27.90;17.55;;;19.00;1.00;;;;;;5083288;28;20090;-70
2022/03/14 08:03:52;;;;;;;29.90;16.85;;;18.90;1.00;;;;;;5069358;28;20033;-71
2022/03/14 08:07:20;;;;;;;30.67;18.05;;;18.50;1.00;;;;;;5080272;28;20235;-70
2022/03/14 08:10:43;;;;;;;26.17;15.70;;;18.30;1.00;;;;;;5081729;28;20248;-70
2022/03/14 08:14:08;;;;;;;24.30;16.45;;;18.80;1.00;;;;;;5048731;28;20113;-67
2022/03/14 08:17:35;;;;;;;27.55;16.33;;;19.10;1.00;;;;;;5084842;28;20055;-68
2022/03/14 08:20:59;;;;;;;29.08;17.38;;;19.70;1.00;;;;;;5068986;28;20029;-69
2022/03/14 08:24:24;;;;;;;23.60;14.43;;;19.70;1.00;;;;;;5059098;28;20028;-70
2022/03/14 08:27:50;;;;;;;22.95;14.38;;;20.80;1.00;;;;;;5073418;28;20093;-70
2022/03/14 08:31:15;;;;;;;28.17;15.88;;;20.90;1.00;;;;;;5080761;28;20373;-67
2022/03/14 08:34:42;;;;;;;27.17;16.92;;;20.40;1.00;;;;;;5084434;28;20040;-68
2022/03/14 08:38:06;;;;;;;26.63;16.20;;;19.30;1.00;;;;;;5086310;28;20523;-69
2022/03/14 08:41:31;;;;;;;26.48;15.57;;;18.60;1.00;;;;;;5064533;28;20036;-68
2022/03/14 08:44:56;;;;;;;23.90;14.07;;;18.00;1.00;;;;;;5084639;28;20028;-68
2022/03/14 08:48:22;;;;;;;25.95;15.60;;;19.50;1.00;;;;;;5084581;28;20078;-70
2022/03/14 08:51:47;;;;;;;26.27;16.63;;;19.70;1.00;;;;;;5069913;28;20101;-67
2022/03/14 08:55:13;;;;;;;23.63;14.55;;;19.20;1.00;;;;;;5076496;28;20035;-68
2022/03/14 08:58:38;;;;;;;21.67;14.13;;;20.50;1.00;;;;;;5072640;28;20048;-65
2022/03/14 09:02:03;;;;;;;27.83;17.27;;;21.00;1.00;;;;;;5067802;28;20025;-69
2022/03/14 09:05:29;;;;;;;25.23;16.63;;;20.00;1.00;;;;;;5082409;28;20110;-71
2022/03/14 09:08:54;;;;;;;23.00;15.43;;;19.20;1.00;;;;;;5070353;28;20484;-69
2022/03/14 09:12:20;;;;;;;23.75;14.55;;;18.70;1.00;;;;;;5079896;28;20032;-71
2022/03/14 09:15:47;;;;;;;22.88;14.25;;;19.90;1.00;;;;;;5073971;28;20039;-70
2022/03/14 09:19:12;;;;;;;21.27;13.18;;;19.90;1.00;;;;;;5067663;28;20037;-70
2022/03/14 09:22:37;;;;;;;20.27;12.05;;;20.30;1.00;;;;;;5078619;28;20040;-70
2022/03/14 09:26:01;;;;;;;16.73;11.13;;;20.80;1.00;;;;;;5081257;28;20036;-70
2022/03/14 09:29:42;;;;;;;18.15;10.77;;;21.90;1.00;;;;;;5081783;28;20052;-70
2022/03/14 09:33:07;;;;;;;14.80;9.27;;;21.60;1.00;;;;;;5067446;28;20515;-69
2022/03/14 09:36:32;;;;;;;15.88;9.60;;;21.60;1.00;;;;;;5063353;28;20041;-71
2022/03/14 09:39:58;;;;;;;16.88;9.43;;;22.80;1.00;;;;;;5081573;28;20155;-72
2022/03/14 09:43:23;;;;;;;19.42;11.40;;;22.90;1.00;;;;;;5076195;28;20028;-72
2022/03/14 09:46:48;;;;;;;17.45;10.88;;;21.10;1.00;;;;;;5061134;28;20544;-71
2022/03/14 09:50:14;;;;;;;16.42;10.85;;;20.20;1.00;;;;;;5047154;28;20036;-72
2022/03/14 09:53:39;;;;;;;17.90;11.27;;;20.20;1.00;;;;;;5080639;28;20040;-71
2022/03/14 09:57:04;;;;;;;16.35;10.85;;;19.50;1.00;;;;;;5075286;28;20048;-73
2022/03/14 10:00:30;;;;;;;16.23;9.50;;;19.80;1.00;;;;;;5048853;28;20083;-69
2022/03/14 10:03:55;;;;;;;14.80;9.65;;;20.40;1.00;;;;;;5068950;28;20037;-72
2022/03/14 10:07:21;;;;;;;15.55;9.02;;;20.70;1.00;;;;;;5079472;28;20028;-70
2022/03/14 10:10:46;;;;;;;17.23;9.07;;;20.90;1.00;;;;;;5082476;28;20411;-69
2022/03/14 10:14:19;;;;;;;18.95;9.20;;;21.30;1.00;;;;;;5047752;28;20025;-71
2022/03/14 10:17:37;;;;;;;14.10;9.75;;;21.50;1.00;;;;;;5081958;28;20269;-71
2022/03/14 10:21:17;;;;;;;15.88;9.25;;;19.70;1.00;;;;;;5080410;28;20419;-71
2022/03/14 10:24:44;;;;;;;13.27;8.63;;;19.80;1.00;;;;;;5076430;28;20131;-71
2022/03/14 10:28:08;;;;;;;16.90;8.90;;;19.90;1.00;;;;;;5069294;28;20480;-71
2022/03/14 10:31:34;;;;;;;17.17;9.57;;;19.60;1.00;;;;;;5075184;28;20040;-71
2022/03/14 10:34:59;;;;;;;16.00;9.63;;;17.30;1.00;;;;;;5079788;28;20085;-72
2022/03/14 10:38:25;;;;;;;14.77;9.35;;;14.80;1.00;;;;;;5080123;28;20028;-71
2022/03/14 10:41:52;;;;;;;14.02;8.95;;;13.60;1.00;;;;;;5070547;28;20036;-71
2022/03/14 10:44:58;;;;;;;;;;;13.10;1.00;;;;;;5078771;28;20051;-71
2022/03/14 10:48:23;;;;;;;14.85;8.48;;;12.70;1.00;;;;;;5091648;28;19910;-71
2022/03/14 10:51:48;;;;;;;16.83;9.98;;;12.50;1.00;;;;;;5065425;28;20041;-71
2022/03/14 10:55:14;;;;;;;15.18;8.90;;;12.50;1.00;;;;;;5080103;28;20036;-72
2022/03/14 10:58:39;;;;;;;16.40;9.60;;;12.50;1.00;;;;;;5076655;28;20518;-71
2022/03/14 11:02:17;;;;;;;14.15;8.18;;;12.40;1.00;;;;;;5078882;28;20036;-72
2022/03/14 11:05:42;;;;;;;14.40;8.90;;;12.40;1.00;;;;;;5056035;28;20369;-70
2022/03/14 11:09:07;;;;;;;12.77;8.43;;;12.30;1.00;;;;;;5079874;28;20048;-71
2022/03/14 11:12:48;;;;;;;18.10;8.23;;;12.10;1.00;;;;;;5086469;28;20400;-71
2022/03/14 11:16:13;;;;;;;15.57;9.32;;;12.10;1.00;;;;;;5069506;28;20044;-71
2022/03/14 11:19:39;;;;;;;13.90;8.30;;;12.00;1.00;;;;;;5079395;28;20396;-71
2022/03/14 11:23:04;;;;;;;13.35;7.88;;;12.00;1.00;;;;;;5084928;28;20101;-72
2022/03/14 11:26:30;;;;;;;17.58;8.82;;;12.20;1.00;;;;;;5077441;28;20533;-71
2022/03/14 11:29:55;;;;;;;13.68;8.05;;;12.30;1.00;;;;;;5078635;28;20032;-71
2022/03/14 11:33:20;;;;;;;12.65;8.88;;;12.40;1.00;;;;;;5084386;28;20069;-71
2022/03/14 11:36:46;;;;;;;13.38;9.10;;;12.30;1.00;;;;;;5064690;28;20045;-71
2022/03/14 11:39:31;;;;;;;13.30;8.98;;;12.30;1.00;;;;;;5085714;28;20036;-62
2022/03/14 11:41:58;;;;;;;12.88;8.20;;;12.30;1.00;;;;;;5088439;28;20525;-62
2022/03/14 11:44:25;;;;;;;11.57;7.95;;;12.40;1.00;;;;;;5070560;28;20033;-62
2022/03/14 11:46:53;;;;;;;14.25;7.90;;;12.50;1.00;;;;;;5069259;28;20021;-62
2022/03/14 11:49:18;;;;;;;14.20;7.97;;;12.60;1.00;;;;;;5089848;28;20032;-61
2022/03/14 11:51:45;;;;;;;16.55;8.60;;;12.60;1.00;;;;;;5068820;28;20073;-62
2022/03/14 11:54:12;;;;;;;15.25;8.38;;;12.60;1.00;;;;;;5089338;28;20082;-62
2022/03/14 11:56:50;;;;;;;19.83;8.98;;;12.60;1.00;;;;;;5068323;28;20454;-62
2022/03/14 11:59:26;;;;;;;17.55;9.25;;;12.60;1.00;;;;;;5049843;28;20134;-62
2022/03/14 12:01:52;;;;;;;13.63;8.90;;;12.50;1.00;;;;;;5066580;28;20396;-62
2022/03/14 12:04:32;;;;;;;14.00;8.88;;;12.60;1.00;;;;;;5089085;28;20082;-62
2022/03/14 12:07:12;;;;;;;11.73;7.60;;;12.50;1.00;;;;;;5067460;28;20491;-62
2022/03/14 12:09:38;;;;;;;16.38;7.85;;;12.40;1.00;;;;;;5087444;28;20412;-62
2022/03/14 12:12:21;;;;;;;10.18;7.15;;;12.50;1.00;;;;;;5069469;28;20048;-62
2022/03/14 12:14:50;;;;;;;13.48;8.13;;;12.50;1.00;;;;;;5087186;28;20024;-61
2022/03/14 12:17:16;;;;;;;14.35;9.20;;;12.50;1.00;;;;;;5090067;28;20052;-62
2022/03/14 12:19:57;;;;;;;13.07;8.68;;;12.50;1.00;;;;;;5068457;28;20071;-61
2022/03/14 12:22:42;;;;;;;13.77;7.85;;;12.60;1.00;;;;;;5089680;28;20429;-62
2022/03/14 12:25:10;;;;;;;9.70;6.43;;;12.90;1.00;;;;;;5056186;28;20148;-62
2022/03/14 12:27:38;;;;;;;16.58;9.45;;;13.10;1.00;;;;;;5072236;28;20020;-62
2022/03/14 12:30:25;;;;;;;14.82;9.05;;;13.30;1.00;;;;;;5087097;28;20055;-62
2022/03/14 12:32:55;;;;;;;15.55;9.27;;;13.40;1.00;;;;;;5057478;28;20048;-62
2022/03/14 12:35:22;;;;;;;12.43;8.77;;;13.50;1.00;;;;;;5086800;28;20044;-62
2022/03/14 12:37:53;;;;;;;11.40;7.90;;;13.60;1.00;;;;;;5089430;28;20034;-62
2022/03/14 12:40:19;;;;;;;11.52;7.30;;;13.80;1.00;;;;;;5059092;28;20051;-62
2022/03/14 12:42:47;;;;;;;13.05;8.70;;;13.90;1.00;;;;;;5089393;28;20392;-62
2022/03/14 12:45:36;;;;;;;12.68;8.20;;;13.90;1.00;;;;;;5072069;28;20038;-61
2022/03/14 12:48:20;;;;;;;12.18;8.75;;;13.90;1.00;;;;;;5088393;28;20591;-62
2022/03/14 12:50:48;;;;;;;11.93;7.50;;;14.00;1.00;;;;;;5065639;28;20023;-62
2022/03/14 12:53:16;;;;;;;12.73;7.18;;;13.80;1.00;;;;;;5069549;28;20442;-62
2022/03/14 12:55:47;;;;;;;10.15;7.35;;;14.00;1.00;;;;;;5086445;28;20051;-62
2022/03/14 12:58:29;;;;;;;11.90;8.05;;;14.00;1.00;;;;;;5069013;28;20021;-62
2022/03/14 13:00:56;;;;;;;12.43;7.38;;;14.20;1.00;;;;;;5086555;28;20024;-62
2022/03/14 13:03:25;;;;;;;16.50;7.38;;;14.10;1.00;;;;;;5069166;28;20036;-62
2022/03/14 13:05:50;;;;;;;13.93;8.48;;;14.30;1.00;;;;;;5086639;28;20111;-62
2022/03/14 13:08:17;;;;;;;13.80;8.35;;;14.50;1.00;;;;;;5069511;28;20112;-62
2022/03/14 13:10:46;;;;;;;12.85;8.80;;;14.60;1.00;;;;;;5086544;28;20032;-62
2022/03/14 13:13:13;;;;;;;10.55;7.43;;;14.40;1.00;;;;;;5068610;28;20053;-62
2022/03/14 13:15:39;;;;;;;11.18;7.00;;;14.60;1.00;;;;;;5086459;28;20036;-62
2022/03/14 13:18:26;;;;;;;12.05;8.02;;;14.90;1.00;;;;;;5068887;28;20074;-62
2022/03/14 13:20:51;;;;;;;14.35;8.82;;;14.90;1.00;;;;;;5067096;28;20634;-62
2022/03/14 13:23:20;;;;;;;10.05;7.85;;;14.80;1.00;;;;;;5070428;28;20329;-62
2022/03/14 13:25:48;;;;;;;15.60;10.18;;;14.80;1.00;;;;;;5087049;28;20039;-62
2022/03/14 13:28:31;;;;;;;11.13;7.72;;;14.70;1.00;;;;;;5064981;28;20044;-62
2022/03/14 13:30:59;;;;;;;11.10;8.05;;;14.80;1.00;;;;;;5086379;28;20035;-62
2022/03/14 13:33:47;;;;;;;8.85;6.40;;;14.80;1.00;;;;;;5068663;28;20031;-62
2022/03/14 13:36:14;;;;;;;11.27;7.03;;;14.80;1.00;;;;;;5073057;28;20096;-62
2022/03/14 13:38:44;;;;;;;9.75;6.15;;;14.90;1.00;;;;;;5068620;28;20031;-62
2022/03/14 13:41:14;;;;;;;14.13;8.35;;;15.00;1.00;;;;;;5073264;28;20021;-62
2022/03/14 13:43:42;;;;;;;13.57;8.50;;;14.90;1.00;;;;;;5088056;28;20020;-62
2022/03/14 13:46:31;;;;;;;12.85;9.15;;;14.60;1.00;;;;;;5066606;28;20515;-62
2022/03/14 13:49:24;;;;;;;13.95;8.38;;;14.50;1.00;;;;;;5087841;28;20122;-62
2022/03/14 13:51:49;;;;;;;13.00;8.77;;;14.30;1.00;;;;;;5060260;28;20098;-62
2022/03/14 13:54:22;;;;;;;14.80;9.20;;;14.20;1.00;;;;;;5087535;28;20461;-61
2022/03/14 13:56:49;;;;;;;13.07;8.77;;;14.10;1.00;;;;;;5064931;28;20040;-62
2022/03/14 13:59:27;;;;;;;12.70;8.35;;;14.00;1.00;;;;;;5087944;28;20515;-62
2022/03/14 14:01:59;;;;;;;15.95;9.30;;;13.90;1.00;;;;;;5067951;28;20512;-62
2022/03/14 14:04:33;;;;;;;11.07;7.53;;;13.90;1.00;;;;;;5091726;28;20494;-62
2022/03/14 14:06:59;;;;;;;12.05;6.65;;;14.00;1.00;;;;;;5068340;28;20029;-62
2022/03/14 14:09:31;;;;;;;11.25;7.22;;;14.10;1.00;;;;;;5091749;28;20028;-62
2022/03/14 14:12:02;;;;;;;13.38;8.15;;;14.20;1.00;;;;;;5070538;28;20066;-63